Time;durP1;ratioP1;P1;durP2;ratioP2;P2;SDS_P1;SDS_P2;PMS_P1;PMS_P2;Temp;Humidity;BMP_temperature;BMP_pressure;BME280_temperature;BME280_humidity;BME280_pressure;Samples;Min_cycle;Max_cycle;Signal;HPM_P1;HPM_P2
2022/01/16 00:00:51;;;;;;;63.83;26.73;;;;;;;1.99;63.54;101023.50;5115154;28;20650;-79
2022/01/16 00:06:06;;;;;;;56.88;25.63;;;;;;;2.08;62.95;101018.06;5117028;28;20127;-74
2022/01/16 00:08:35;;;;;;;60.90;24.40;;;;;;;2.04;63.13;101013.84;5113580;27;20122;-75
2022/01/16 00:11:02;;;;;;;62.60;24.40;;;;;;;2.05;63.11;101005.97;5124983;28;20051;-75
2022/01/16 00:13:29;;;;;;;57.55;22.73;;;;;;;2.10;63.27;100995.41;5125801;28;20280;-72
2022/01/16 00:15:57;;;;;;;66.28;28.45;;;;;;;2.16;63.02;100978.78;5126963;28;20074;-73
2022/01/16 00:18:28;;;;;;;74.80;35.25;;;;;;;2.20;62.96;100993.44;5124213;28;20126;-72
2022/01/16 00:20:56;;;;;;;61.10;25.90;;;;;;;2.21;62.99;101003.81;5124821;28;20028;-73
2022/01/16 00:23:28;;;;;;;65.13;26.13;;;;;;;2.23;63.00;100993.34;5126998;28;20249;-74
2022/01/16 00:25:57;;;;;;;60.83;28.38;;;;;;;2.23;62.96;100981.19;5127234;28;20027;-76
2022/01/16 00:28:26;;;;;;;63.38;29.50;;;;;;;2.18;62.87;100971.75;5129896;28;20070;-74
2022/01/16 00:30:53;;;;;;;66.55;28.85;;;;;;;2.18;62.80;100976.97;5128025;28;20062;-75
2022/01/16 00:33:21;;;;;;;71.63;31.25;;;;;;;2.19;62.81;100984.75;5126377;28;20039;-74
2022/01/16 00:35:47;;;;;;;72.40;29.48;;;;;;;2.23;63.07;100977.72;5125714;28;20094;-70
2022/01/16 00:38:14;;;;;;;81.82;34.80;;;;;;;2.22;62.84;100981.22;5126626;28;20040;-73
2022/01/16 00:40:43;;;;;;;67.60;28.63;;;;;;;2.23;62.80;100998.56;5129554;28;20108;-73
2022/01/16 00:43:10;;;;;;;72.97;27.70;;;;;;;2.17;62.88;100980.50;5122929;28;20087;-79
2022/01/16 00:45:37;;;;;;;61.78;24.50;;;;;;;2.17;62.81;100977.88;5125386;28;20043;-72
2022/01/16 00:48:05;;;;;;;70.45;25.67;;;;;;;2.12;62.74;100962.34;5114379;28;20139;-73
2022/01/16 00:50:33;;;;;;;97.97;43.22;;;;;;;2.04;62.82;100982.56;5117368;28;20047;-72
2022/01/16 00:53:01;;;;;;;85.57;34.72;;;;;;;2.01;62.87;100985.25;5106794;28;20047;-72
2022/01/16 00:55:28;;;;;;;77.88;30.45;;;;;;;1.99;62.92;101005.25;5108581;28;20054;-76
2022/01/16 00:57:57;;;;;;;65.68;30.75;;;;;;;1.98;62.76;101020.06;5109791;28;20419;-70
2022/01/16 01:00:24;;;;;;;85.95;30.95;;;;;;;2.03;62.80;101010.34;5108408;28;20086;-75
2022/01/16 01:02:54;;;;;;;69.60;30.63;;;;;;;2.08;62.81;101008.47;5108657;28;20554;-69
2022/01/16 01:05:21;;;;;;;80.05;32.78;;;;;;;2.09;62.73;101005.00;5090360;28;20101;-70
2022/01/16 01:07:48;;;;;;;89.13;35.75;;;;;;;2.10;62.63;100993.66;5112315;28;20065;-74
2022/01/16 01:10:15;;;;;;;71.57;29.95;;;;;;;2.08;62.58;100966.78;5114640;28;20138;-70
2022/01/16 01:12:52;;;;;;;77.10;33.15;;;;;;;2.08;62.68;100985.03;5118224;28;20040;-71
2022/01/16 01:15:25;;;;;;;73.75;30.55;;;;;;;2.15;62.55;100997.94;5114746;28;20040;-71
2022/01/16 01:17:53;;;;;;;91.35;36.28;;;;;;;2.15;62.25;100977.06;5118083;28;20099;-71
2022/01/16 01:20:22;;;;;;;89.03;37.20;;;;;;;2.17;62.57;100991.75;5112204;28;20051;-73
2022/01/16 01:22:51;;;;;;;90.75;33.40;;;;;;;2.18;62.36;101003.91;5115793;28;20099;-79
2022/01/16 01:25:19;;;;;;;75.10;28.38;;;;;;;2.17;62.57;100968.31;5110274;28;20054;-74
2022/01/16 01:27:47;;;;;;;69.50;31.33;;;;;;;2.15;62.44;100958.84;5109578;28;20048;-71
2022/01/16 01:30:16;;;;;;;78.32;31.02;;;;;;;2.18;62.61;100976.97;5109656;28;20134;-73
2022/01/16 01:32:47;;;;;;;64.88;30.50;;;;;;;2.15;62.38;100961.44;5109109;28;20483;-71
2022/01/16 01:35:16;;;;;;;64.35;27.25;;;;;;;2.14;62.47;100950.13;5107164;28;20096;-77
2022/01/16 01:37:44;;;;;;;65.20;28.98;;;;;;;2.14;62.44;100996.19;5106966;28;20050;-72
2022/01/16 01:40:14;;;;;;;59.28;30.08;;;;;;;2.08;62.42;100961.59;5107901;28;20126;-71
2022/01/16 01:43:01;;;;;;;76.40;33.42;;;;;;;2.04;62.30;100970.38;5111831;28;20086;-72
2022/01/16 01:51:16;;;;;;;50.15;23.35;;;;;;;1.88;62.34;100844.03;5107775;28;20692;-75
2022/01/16 01:53:46;;;;;;;54.22;22.58;;;;;;;1.83;62.63;100833.72;5106632;28;20043;-72
2022/01/16 01:56:18;;;;;;;51.97;24.63;;;;;;;1.82;62.31;100832.03;5120845;28;20142;-80
2022/01/16 01:58:45;;;;;;;78.40;34.15;;;;;;;1.78;62.25;100826.94;5108966;28;20047;-76
2022/01/16 02:01:12;;;;;;;59.55;25.40;;;;;;;1.82;62.06;100859.81;5109314;28;20047;-79
2022/01/16 02:03:43;;;;;;;58.65;24.75;;;;;;;1.85;62.19;100864.94;5108861;28;20043;-75
2022/01/16 02:06:14;;;;;;;73.95;28.15;;;;;;;1.86;62.14;100892.72;5108667;28;20135;-77
2022/01/16 02:08:43;;;;;;;66.82;29.65;;;;;;;1.85;61.92;100893.59;5109498;28;20044;-79
2022/01/16 02:11:12;;;;;;;71.00;36.22;;;;;;;1.78;62.05;100889.44;5108950;28;20078;-78
2022/01/16 02:13:49;;;;;;;68.35;27.80;;;;;;;1.69;61.72;100907.03;5109705;28;20139;-78
2022/01/16 02:34:28;;;;;;;51.25;22.20;;;;;;;1.57;61.11;100919.47;5111813;28;20075;-77
2022/01/16 02:36:13;;;;;;;53.03;25.58;;;;;;;1.61;61.25;100908.94;5113145;28;20189;-73
2022/01/16 02:38:45;;;;;;;56.63;24.95;;;;;;;1.58;61.08;100916.81;5116046;28;20054;-78
2022/01/16 02:41:14;;;;;;;61.67;27.48;;;;;;;1.61;61.15;100898.53;5121777;28;20424;-79
2022/01/16 02:43:46;;;;;;;76.55;36.38;;;;;;;1.63;61.19;100914.97;5113352;28;20068;-75
2022/01/16 02:48:58;;;;;;;49.90;22.52;;;;;;;1.67;61.09;100915.75;5113527;28;20211;-72
2022/01/16 02:51:27;;;;;;;68.00;30.33;;;;;;;1.69;61.18;100901.81;5111743;28;20130;-74
2022/01/16 02:53:54;;;;;;;56.00;25.23;;;;;;;1.73;60.97;100913.00;5109951;28;20047;-76
2022/01/16 02:56:23;;;;;;;56.65;26.73;;;;;;;1.76;61.10;100901.66;5111386;28;20047;-76
2022/01/16 02:58:52;;;;;;;62.58;26.75;;;;;;;1.76;60.94;100886.88;5111795;28;20043;-73
2022/01/16 03:01:20;;;;;;;57.20;24.52;;;;;;;1.78;61.03;100895.50;5112417;28;20051;-82
2022/01/16 03:03:48;;;;;;;49.30;22.52;;;;;;;1.77;60.93;100896.41;5111439;28;20069;-74
2022/01/16 03:06:15;;;;;;;55.90;24.35;;;;;;;1.77;60.86;100874.72;5110320;28;20044;-72
2022/01/16 03:08:42;;;;;;;56.05;25.83;;;;;;;1.81;61.04;100881.56;5108574;28;20407;-71
2022/01/16 03:11:22;;;;;;;52.22;24.17;;;;;;;1.83;60.87;100888.41;5109574;28;20048;-76
2022/01/16 03:13:51;;;;;;;56.83;24.63;;;;;;;1.87;60.59;100897.00;5109656;28;20053;-76
2022/01/16 03:16:19;;;;;;;60.58;25.70;;;;;;;1.84;60.75;100891.91;5110603;28;20063;-74
2022/01/16 03:24:16;;;;;;;60.95;34.95;;;;;;;1.55;60.26;100884.81;5107336;28;20055;-70
2022/01/16 03:26:43;;;;;;;52.50;27.70;;;;;;;1.49;60.39;100894.47;5108539;28;20057;-73
2022/01/16 03:29:12;;;;;;;66.40;34.28;;;;;;;1.42;60.31;100892.91;5110502;28;20047;-80
2022/01/16 03:31:39;;;;;;;49.70;28.92;;;;;;;1.37;60.31;100870.50;5111627;28;20419;-72
2022/01/16 03:34:07;;;;;;;47.13;23.48;;;;;;;1.44;60.32;100870.34;5110572;28;20051;-73
2022/01/16 03:36:34;;;;;;;51.67;21.05;;;;;;;1.56;60.10;100861.34;5109094;28;20407;-73
2022/01/16 03:39:03;;;;;;;48.08;22.27;;;;;;;1.64;59.97;100864.63;5108963;28;20047;-79
2022/01/16 03:41:34;;;;;;;46.72;21.73;;;;;;;1.71;59.99;100867.91;5111678;28;20055;-72
2022/01/16 03:44:02;;;;;;;54.75;22.95;;;;;;;1.71;60.11;100857.47;5073652;28;20058;-73
2022/01/16 03:46:35;;;;;;;45.58;22.20;;;;;;;1.75;60.31;100853.03;5109923;28;20479;-76
2022/01/16 03:49:11;;;;;;;64.85;28.52;;;;;;;1.60;59.78;100846.50;5109709;28;20044;-74
2022/01/16 03:51:40;;;;;;;43.95;21.10;;;;;;;1.62;60.18;100840.38;5108660;28;20051;-73
2022/01/16 03:54:10;;;;;;;48.55;22.23;;;;;;;1.66;59.93;100838.53;5106976;28;20040;-76
2022/01/16 03:56:38;;;;;;;45.92;23.20;;;;;;;1.74;59.99;100826.16;5110035;28;20048;-74
2022/01/16 03:59:06;;;;;;;53.00;21.63;;;;;;;1.85;59.86;100828.47;5108835;28;20498;-71
2022/01/16 04:01:35;;;;;;;53.05;22.20;;;;;;;1.90;59.77;100829.22;5108914;28;20547;-76
2022/01/16 04:04:02;;;;;;;58.72;24.77;;;;;;;1.94;59.96;100829.97;5109946;28;20470;-72
2022/01/16 04:06:30;;;;;;;57.75;24.80;;;;;;;1.99;59.91;100825.50;5108490;28;20096;-72
2022/01/16 04:08:57;;;;;;;52.17;22.90;;;;;;;2.00;59.89;100820.25;5108699;28;20048;-72
2022/01/16 04:11:27;;;;;;;58.47;27.20;;;;;;;2.03;59.83;100804.50;5109531;28;20077;-75
2022/01/16 04:13:54;;;;;;;44.40;21.63;;;;;;;2.08;59.98;100805.22;5108949;28;20060;-73
2022/01/16 04:16:23;;;;;;;45.65;20.77;;;;;;;2.08;59.85;100800.03;5109722;28;20052;-71
2022/01/16 04:18:52;;;;;;;46.95;19.42;;;;;;;2.11;59.77;100788.69;5110430;28;20054;-75
2022/01/16 04:21:20;;;;;;;39.13;18.27;;;;;;;2.12;59.94;100789.53;5111221;28;20083;-73
2022/01/16 04:23:47;;;;;;;40.30;19.88;;;;;;;2.12;59.72;100784.31;5108574;28;20053;-75
2022/01/16 04:26:14;;;;;;;45.78;18.80;;;;;;;2.13;59.80;100786.88;5108787;28;20039;-74
2022/01/16 04:28:42;;;;;;;49.47;23.20;;;;;;;2.08;59.86;100792.22;5108626;28;20086;-74
2022/01/16 04:31:09;;;;;;;37.35;18.20;;;;;;;2.09;59.92;100793.94;5108478;28;20051;-72
2022/01/16 04:33:36;;;;;;;40.97;24.50;;;;;;;2.06;59.71;100800.97;5107636;28;20050;-75
2022/01/16 04:36:06;;;;;;;46.92;17.13;;;;;;;2.05;59.87;100802.75;5109900;28;20056;-75
2022/01/16 04:38:34;;;;;;;44.42;18.75;;;;;;;2.05;60.03;100797.53;5108006;28;20047;-79
2022/01/16 04:43:50;;;;;;;43.30;18.90;;;;;;;2.05;59.83;100794.91;5106642;28;20395;-73
2022/01/16 04:46:17;;;;;;;40.88;18.48;;;;;;;2.11;59.93;100788.69;5105718;28;20498;-70
2022/01/16 04:48:44;;;;;;;43.85;17.10;;;;;;;2.19;59.81;100770.22;5107163;28;20123;-70
2022/01/16 04:51:13;;;;;;;55.88;20.77;;;;;;;2.26;59.88;100771.72;5106877;28;20417;-70
2022/01/16 04:53:42;;;;;;;43.92;18.10;;;;;;;2.32;59.40;100774.13;5107539;28;20418;-70
2022/01/16 04:56:10;;;;;;;35.80;18.42;;;;;;;2.34;59.56;100777.59;5105724;28;20112;-70
2022/01/16 04:58:38;;;;;;;43.05;22.08;;;;;;;2.35;59.69;100776.66;5089360;28;20520;-71
2022/01/16 05:01:05;;;;;;;41.28;17.17;;;;;;;2.38;59.62;100771.38;5106534;28;20067;-72
2022/01/16 05:03:33;;;;;;;34.85;17.58;;;;;;;2.41;59.66;100771.28;5106147;28;20506;-71
2022/01/16 05:06:01;;;;;;;45.22;16.08;;;;;;;2.45;59.30;100772.88;5106300;28;20047;-71
2022/01/16 05:08:29;;;;;;;39.00;16.15;;;;;;;2.47;59.73;100760.66;5108561;28;20103;-77
2022/01/16 05:10:57;;;;;;;32.08;16.85;;;;;;;2.49;59.64;100753.63;5108019;28;20525;-72
2022/01/16 05:16:35;;;;;;;35.85;15.32;;;;;;;2.51;59.50;100750.13;5109624;28;20643;-79
2022/01/16 05:16:37;;;;;;;23.48;13.98;;;;;;;2.57;59.57;100750.78;5109924;28;20105;-75
2022/01/16 05:19:08;;;;;;;35.80;15.20;;;;;;;2.64;59.51;100736.66;5111057;28;20543;-79
2022/01/16 05:21:35;;;;;;;34.15;14.63;;;;;;;2.67;59.35;100739.16;5109757;28;20081;-74
2022/01/16 05:24:08;;;;;;;31.52;13.43;;;;;;;2.67;59.51;100733.94;5107624;28;20050;-77
2022/01/16 05:26:36;;;;;;;33.83;15.65;;;;;;;2.67;59.48;100727.88;5119722;28;20084;-77
2022/01/16 05:29:04;;;;;;;34.85;14.65;;;;;;;2.67;59.46;100730.50;5110635;28;20047;-80
2022/01/16 05:31:31;;;;;;;37.38;17.73;;;;;;;2.71;59.52;100731.25;5119827;28;20052;-78
2022/01/16 05:33:58;;;;;;;39.80;14.45;;;;;;;2.75;59.39;100722.41;5111206;28;20044;-79
2022/01/16 05:36:25;;;;;;;33.65;15.98;;;;;;;2.76;59.44;100717.16;5110261;28;20398;-80
2022/01/16 05:38:53;;;;;;;37.70;18.00;;;;;;;2.79;59.44;100714.44;5108990;28;20047;-79
2022/01/16 05:41:22;;;;;;;30.05;14.15;;;;;;;2.81;59.40;100717.84;5109774;28;20201;-77
2022/01/16 05:43:52;;;;;;;37.50;16.90;;;;;;;2.80;59.55;100708.31;5110230;28;20161;-79
2022/01/16 05:46:19;;;;;;;34.00;16.52;;;;;;;2.83;59.49;100710.81;5110291;28;20044;-74
2022/01/16 05:48:48;;;;;;;36.05;16.25;;;;;;;2.89;59.38;100708.94;5106839;28;20044;-71
2022/01/16 05:51:15;;;;;;;35.00;18.50;;;;;;;2.91;59.38;100700.13;5092745;28;20039;-74
2022/01/16 05:53:44;;;;;;;37.70;16.50;;;;;;;2.89;59.41;100695.88;5106107;28;20447;-77
2022/01/16 05:56:13;;;;;;;40.28;15.77;;;;;;;2.84;59.65;100694.25;5109052;28;20480;-76
2022/01/16 05:58:43;;;;;;;41.08;17.48;;;;;;;2.87;59.65;100694.16;5108583;28;20574;-76
2022/01/16 06:01:10;;;;;;;33.30;15.25;;;;;;;2.89;59.32;100688.91;5107193;28;20055;-72
2022/01/16 06:03:39;;;;;;;37.47;17.10;;;;;;;2.89;59.58;100673.25;5073384;28;20052;-78
2022/01/16 06:06:06;;;;;;;35.80;14.93;;;;;;;2.86;59.82;100676.81;5109493;28;20571;-77
2022/01/16 06:08:36;;;;;;;38.88;15.98;;;;;;;2.90;59.62;100674.09;5109294;28;20054;-75
2022/01/16 06:11:04;;;;;;;40.25;15.57;;;;;;;2.86;59.85;100674.22;5108244;28;20127;-77
2022/01/16 06:13:31;;;;;;;31.52;16.80;;;;;;;2.90;59.57;100664.53;5108330;28;20056;-74
2022/01/16 06:16:02;;;;;;;44.13;20.50;;;;;;;2.91;59.83;100654.94;5106309;28;20685;-76
2022/01/16 06:18:29;;;;;;;34.10;15.18;;;;;;;2.89;59.69;100647.16;5110398;28;20071;-74
2022/01/16 06:20:57;;;;;;;35.92;16.05;;;;;;;2.89;59.73;100656.75;5108016;28;20043;-73
2022/01/16 06:23:24;;;;;;;30.52;13.65;;;;;;;2.89;59.75;100654.97;5106681;28;20052;-74
2022/01/16 06:25:54;;;;;;;32.15;13.40;;;;;;;2.90;59.78;100648.00;5108522;28;20742;-74
2022/01/16 06:28:22;;;;;;;27.00;13.38;;;;;;;2.94;59.61;100652.22;5107032;28;20047;-75
2022/01/16 06:30:50;;;;;;;32.75;13.85;;;;;;;2.92;59.77;100639.22;5105471;28;20051;-77
2022/01/16 06:33:19;;;;;;;27.60;13.70;;;;;;;2.91;59.84;100640.13;5086192;28;20048;-73
2022/01/16 06:35:46;;;;;;;28.88;13.40;;;;;;;2.94;59.78;100629.59;5084894;28;20048;-77
2022/01/16 06:38:13;;;;;;;27.17;12.05;;;;;;;2.96;59.80;100621.72;5086357;28;20126;-73
2022/01/16 06:40:40;;;;;;;29.05;13.68;;;;;;;2.98;59.68;100620.72;5088623;28;20048;-80
2022/01/16 06:43:08;;;;;;;29.73;13.48;;;;;;;2.97;59.69;100615.56;5092236;28;20140;-74
2022/01/16 06:45:35;;;;;;;30.17;14.63;;;;;;;3.00;59.81;100607.63;5088134;28;20407;-75
2022/01/16 06:48:02;;;;;;;29.27;14.38;;;;;;;2.99;59.71;100596.38;5086979;28;20114;-76
2022/01/16 06:50:32;;;;;;;33.15;16.95;;;;;;;3.00;59.91;100590.22;5085688;28;20052;-79
2022/01/16 06:52:59;;;;;;;30.80;13.95;;;;;;;3.01;59.70;100588.47;5089786;28;20048;-78
2022/01/16 06:55:27;;;;;;;30.10;13.88;;;;;;;3.00;59.92;100594.59;5086717;28;20071;-77
2022/01/16 06:57:54;;;;;;;34.40;16.23;;;;;;;2.99;59.88;100596.38;5096321;28;20062;-73
2022/01/16 07:00:21;;;;;;;37.33;16.40;;;;;;;3.02;59.75;100603.22;5098618;28;20054;-75
2022/01/16 07:02:48;;;;;;;38.20;17.05;;;;;;;3.05;59.89;100600.50;5103278;28;20088;-76
2022/01/16 07:05:15;;;;;;;39.45;17.83;;;;;;;3.10;59.82;100603.81;5100740;28;20043;-75
2022/01/16 07:07:45;;;;;;;42.83;20.48;;;;;;;3.12;59.71;100603.75;5097940;28;20040;-74
2022/01/16 07:10:12;;;;;;;36.05;16.48;;;;;;;3.11;59.87;100610.72;5103630;28;20039;-72
2022/01/16 07:12:39;;;;;;;29.88;15.27;;;;;;;3.17;59.82;100613.13;5100254;28;20050;-78
2022/01/16 07:15:07;;;;;;;35.05;19.67;;;;;;;3.19;59.58;100613.06;5097265;28;20116;-74
2022/01/16 07:17:35;;;;;;;36.60;18.00;;;;;;;3.20;59.62;100615.59;5104862;28;20541;-76
2022/01/16 07:20:03;;;;;;;55.72;22.55;;;;;;;3.22;59.56;100618.16;5110196;28;20406;-75
2022/01/16 07:22:30;;;;;;;39.00;18.85;;;;;;;3.27;59.60;100610.16;5103004;28;20044;-73
2022/01/16 07:24:59;;;;;;;44.10;18.63;;;;;;;3.30;59.63;100610.06;5101899;28;20047;-74
2022/01/16 07:27:26;;;;;;;38.38;17.63;;;;;;;3.33;59.44;100610.81;5106601;28;20617;-74
2022/01/16 07:29:56;;;;;;;37.92;16.58;;;;;;;3.38;59.57;100618.44;5116132;28;20126;-75
2022/01/16 07:32:23;;;;;;;39.47;17.80;;;;;;;3.45;59.23;100620.78;5085987;28;20048;-72
2022/01/16 07:34:51;;;;;;;31.05;17.23;;;;;;;3.54;59.13;100614.34;5118371;28;20103;-75
2022/01/16 07:37:19;;;;;;;44.85;22.98;;;;;;;3.56;59.01;100617.75;5113996;28;20048;-72
2022/01/16 07:39:46;;;;;;;43.47;23.52;;;;;;;3.62;59.04;100621.94;5106926;28;20082;-73
2022/01/16 07:42:14;;;;;;;40.25;17.15;;;;;;;3.47;58.22;100612.88;5109913;28;20107;-75
2022/01/16 07:44:41;;;;;;;44.13;21.70;;;;;;;3.49;58.42;100621.50;5112226;28;20100;-75
2022/01/16 07:47:08;;;;;;;45.47;19.45;;;;;;;3.56;58.53;100611.69;5122780;28;20039;-74
2022/01/16 07:49:36;;;;;;;38.25;19.88;;;;;;;3.61;58.54;100609.75;5116717;28;20099;-73
2022/01/16 07:52:05;;;;;;;38.17;16.67;;;;;;;3.67;58.66;100621.75;5116924;28;20108;-79
2022/01/16 07:54:32;;;;;;;32.33;17.55;;;;;;;3.64;58.20;100613.13;5111559;28;20150;-74
2022/01/16 07:57:00;;;;;;;35.85;18.58;;;;;;;3.69;58.38;100614.69;5119387;28;20126;-76
2022/01/16 07:59:28;;;;;;;40.47;19.50;;;;;;;3.75;58.32;100614.47;5121685;28;20539;-76
2022/01/16 08:01:55;;;;;;;42.10;22.85;;;;;;;3.82;58.28;100610.72;5123695;28;20081;-78
2022/01/16 08:04:22;;;;;;;44.13;22.08;;;;;;;3.85;58.15;100599.28;5123739;28;20086;-75
2022/01/16 08:06:49;;;;;;;45.42;22.95;;;;;;;3.93;58.15;100590.22;5120326;28;20087;-78
2022/01/16 08:09:17;;;;;;;53.90;25.15;;;;;;;3.97;58.08;100585.72;5123170;28;20078;-74
2022/01/16 08:11:44;;;;;;;39.67;21.50;;;;;;;4.06;58.25;100587.97;5116305;28;20040;-78
2022/01/16 08:14:12;;;;;;;43.83;22.70;;;;;;;4.12;58.02;100585.09;5112401;28;20104;-80
2022/01/16 08:16:41;;;;;;;48.53;22.85;;;;;;;4.20;57.87;100583.03;5113759;28;20036;-79
2022/01/16 08:19:10;;;;;;;52.70;24.73;;;;;;;4.25;57.83;100584.59;5097932;28;20790;-75
2022/01/16 08:21:38;;;;;;;48.88;23.05;;;;;;;4.27;57.78;100572.31;5094979;28;20044;-82
2022/01/16 08:24:06;;;;;;;50.53;26.10;;;;;;;4.35;57.53;100578.94;5095905;28;20067;-82
2022/01/16 08:26:35;;;;;;;37.92;20.13;;;;;;;4.38;57.64;100580.59;5075987;28;20044;-80
2022/01/16 08:29:03;;;;;;;34.15;18.00;;;;;;;4.39;57.54;100572.69;5110257;28;20040;-78
2022/01/16 08:31:30;;;;;;;41.85;20.42;;;;;;;4.35;57.53;100555.41;5106005;28;20047;-80
2022/01/16 08:33:59;;;;;;;39.25;18.95;;;;;;;4.43;57.78;100556.84;5107450;28;20056;-76
2022/01/16 08:36:35;;;;;;;44.63;23.27;;;;;;;4.48;57.43;100571.44;5093823;28;20173;-80
2022/01/16 08:39:04;;;;;;;35.25;19.13;;;;;;;4.49;57.34;100561.84;5106546;28;20040;-79
2022/01/16 08:41:37;;;;;;;33.22;16.85;;;;;;;4.55;57.34;100558.94;5105934;28;20055;-76
2022/01/16 08:44:08;;;;;;;36.72;16.77;;;;;;;4.59;57.32;100564.00;5108384;28;20105;-79
2022/01/16 08:46:36;;;;;;;35.60;15.40;;;;;;;4.57;57.25;100557.09;5105785;28;20108;-75
2022/01/16 08:49:05;;;;;;;37.17;18.48;;;;;;;4.56;57.51;100545.81;5107258;28;20036;-81
2022/01/16 08:51:33;;;;;;;40.33;18.25;;;;;;;4.60;57.20;100549.97;5119738;28;20102;-82
2022/01/16 08:54:00;;;;;;;42.10;22.80;;;;;;;4.61;57.19;100543.00;5123732;28;20039;-83
2022/01/16 08:56:33;;;;;;;48.03;24.70;;;;;;;4.66;57.17;100530.56;5123514;27;20113;-77
2022/01/16 08:59:01;;;;;;;51.90;22.85;;;;;;;4.64;57.21;100535.00;5109501;28;20075;-78
2022/01/16 09:01:28;;;;;;;45.38;23.65;;;;;;;4.69;57.18;100521.72;5114926;28;20047;-80
2022/01/16 09:03:56;;;;;;;44.42;24.33;;;;;;;4.80;56.93;100516.88;5117979;28;20131;-79
2022/01/16 09:06:27;;;;;;;51.00;25.92;;;;;;;4.83;56.92;100500.19;5118379;28;20051;-82
2022/01/16 09:08:56;;;;;;;40.53;19.45;;;;;;;4.89;56.85;100507.75;5124182;28;20047;-79
2022/01/16 09:11:26;;;;;;;44.72;19.92;;;;;;;4.96;56.87;100498.72;5120943;28;20540;-80
2022/01/16 09:13:54;;;;;;;46.78;21.83;;;;;;;5.03;56.72;100499.28;5098107;28;20126;-81
2022/01/16 09:16:23;;;;;;;47.60;22.88;;;;;;;4.99;56.66;100498.59;5115638;27;20139;-80
2022/01/16 09:18:59;;;;;;;44.80;22.23;;;;;;;4.96;56.80;100499.56;5120358;28;20071;-84
2022/01/16 09:21:33;;;;;;;43.65;18.65;;;;;;;5.02;56.83;100495.81;5106243;28;20047;-84
2022/01/16 09:24:01;;;;;;;50.03;19.77;;;;;;;4.98;56.73;100487.25;5084903;28;20051;-84
2022/01/16 09:26:32;;;;;;;41.22;19.38;;;;;;;5.01;56.68;100491.50;5106598;28;20040;-80
2022/01/16 09:34:32;;;;;;;52.50;19.85;;;;;;;4.95;56.64;100476.94;5129507;28;20098;-81
2022/01/16 09:37:11;;;;;;;51.97;23.85;;;;;;;4.99;56.74;100475.03;5116801;28;20069;-85
2022/01/16 09:39:51;;;;;;;45.38;20.52;;;;;;;5.08;56.57;100484.22;5111919;28;20055;-85
2022/01/16 09:42:33;;;;;;;51.33;27.15;;;;;;;5.03;56.57;100473.97;5114576;28;20104;-81
2022/01/16 09:45:05;;;;;;;39.33;18.48;;;;;;;4.91;56.68;100484.97;5106970;28;20143;-81
2022/01/16 09:47:46;;;;;;;42.40;21.27;;;;;;;4.89;56.68;100478.97;5102275;28;20047;-82
2022/01/16 09:50:22;;;;;;;53.70;25.02;;;;;;;4.89;56.83;100471.13;5107940;28;20046;-84
2022/01/16 09:52:51;;;;;;;;;;;;;;;5.16;56.18;100472.47;5105373;28;20065;-75
2022/01/16 09:55:25;;;;;;;43.10;19.08;;;;;;;4.93;56.48;100477.91;5128861;28;19927;-85
2022/01/16 09:58:04;;;;;;;37.20;19.42;;;;;;;4.93;56.65;100472.69;5133930;28;20035;-79
2022/01/16 10:00:36;;;;;;;42.65;19.17;;;;;;;4.80;56.69;100464.53;5113269;28;20210;-83
2022/01/16 10:03:26;;;;;;;40.17;19.60;;;;;;;4.84;56.86;100462.63;5114072;28;20070;-83
2022/01/16 10:06:20;;;;;;;38.33;21.38;;;;;;;4.85;56.79;100466.94;5054237;28;20041;-81
2022/01/16 10:09:19;;;;;;;36.25;20.08;;;;;;;4.86;56.78;100463.41;5058022;28;20052;-83
2022/01/16 10:11:58;;;;;;;36.17;18.60;;;;;;;4.83;56.59;100456.56;5043645;28;20128;-81
2022/01/16 10:14:37;;;;;;;42.80;20.38;;;;;;;4.84;56.54;100452.16;5034027;28;20045;-80
2022/01/16 10:17:13;;;;;;;40.85;20.02;;;;;;;4.98;56.37;100453.22;5020730;28;20046;-79
2022/01/16 10:19:41;;;;;;;33.75;14.63;;;;;;;5.01;56.29;100449.63;5028840;28;20100;-80
2022/01/16 10:22:15;;;;;;;37.38;17.85;;;;;;;5.03;56.28;100442.53;5040893;28;20068;-80
2022/01/16 10:24:56;;;;;;;34.45;17.63;;;;;;;5.16;56.19;100443.66;5045228;28;20100;-78
2022/01/16 10:27:25;;;;;;;44.05;19.65;;;;;;;5.15;55.93;100434.13;5037911;28;20048;-82
2022/01/16 10:30:02;;;;;;;37.42;20.55;;;;;;;5.23;55.97;100433.75;5038312;28;20045;-77
2022/01/16 10:32:32;;;;;;;47.65;22.17;;;;;;;5.21;55.86;100432.97;5040204;28;20065;-81
2022/01/16 10:35:23;;;;;;;42.47;23.95;;;;;;;5.14;56.02;100434.19;5047546;28;20060;-83
2022/01/16 10:37:54;;;;;;;29.40;14.50;;;;;;;5.03;56.10;100421.59;5041581;28;20118;-80
2022/01/16 10:40:44;;;;;;;41.17;21.30;;;;;;;4.96;56.44;100421.03;5038945;28;20160;-81
2022/01/16 10:43:15;;;;;;;39.42;21.05;;;;;;;4.90;56.30;100410.03;5076728;28;20083;-80
2022/01/16 10:45:45;;;;;;;50.90;26.50;;;;;;;4.94;56.23;100404.56;5103892;28;20069;-86
2022/01/16 10:48:20;;;;;;;51.35;24.23;;;;;;;4.92;56.20;100403.78;5104144;28;20627;-82
2022/01/16 10:50:51;;;;;;;43.00;22.80;;;;;;;5.01;56.01;100393.81;5106679;28;20033;-77
2022/01/16 10:53:26;;;;;;;42.53;20.63;;;;;;;5.04;56.06;100388.41;5095070;28;20066;-78
2022/01/16 10:55:57;;;;;;;40.20;20.92;;;;;;;5.15;55.87;100379.13;5108213;28;20056;-81
2022/01/16 11:01:19;;;;;;;43.13;22.17;;;;;;;5.18;55.64;100365.03;5100934;28;20060;-79
2022/01/16 11:03:59;;;;;;;52.42;25.80;;;;;;;5.14;55.81;100364.34;5105318;28;20048;-83
2022/01/16 11:06:33;;;;;;;53.78;31.30;;;;;;;5.16;55.75;100354.63;5107726;28;20062;-83
2022/01/16 11:09:04;;;;;;;54.03;28.17;;;;;;;5.16;55.78;100345.94;5101950;28;20044;-80
2022/01/16 11:11:35;;;;;;;44.75;20.30;;;;;;;5.20;55.80;100344.84;5096538;28;20555;-86
2022/01/16 11:14:06;;;;;;;50.80;22.35;;;;;;;5.16;55.68;100343.31;5103683;28;20059;-85
2022/01/16 11:16:52;;;;;;;40.03;23.17;;;;;;;5.12;55.88;100345.25;5100778;28;20044;-86
2022/01/16 11:19:21;;;;;;;49.40;22.77;;;;;;;5.17;55.76;100334.56;5096981;28;20051;-81
2022/01/16 11:22:10;;;;;;;49.63;25.98;;;;;;;5.24;55.77;100342.94;5101604;28;20574;-81
2022/01/16 11:24:59;;;;;;;59.92;27.15;;;;;;;5.23;55.77;100334.25;5098430;28;20186;-85
2022/01/16 11:27:37;;;;;;;56.10;26.92;;;;;;;5.29;55.73;100333.09;5098206;28;20054;-81
2022/01/16 11:30:06;;;;;;;53.10;25.38;;;;;;;5.25;55.60;100331.56;5100673;28;20078;-84
2022/01/16 11:32:34;;;;;;;39.70;21.15;;;;;;;5.25;55.60;100326.31;5108202;28;20047;-79
2022/01/16 11:35:09;;;;;;;40.78;21.08;;;;;;;5.20;55.71;100321.28;5105257;28;20243;-83
2022/01/16 11:37:47;;;;;;;54.60;27.58;;;;;;;5.11;55.63;100314.75;5073992;28;20083;-85
2022/01/16 11:40:56;;;;;;;52.10;27.52;;;;;;;5.14;56.08;100304.13;5101993;28;20054;-82
2022/01/16 11:43:43;;;;;;;42.78;24.95;;;;;;;5.16;55.79;100302.25;5080847;28;20048;-79
2022/01/16 11:46:21;;;;;;;52.70;25.27;;;;;;;5.15;55.65;100289.28;5110042;28;20726;-78
2022/01/16 11:49:08;;;;;;;50.30;21.42;;;;;;;5.21;55.77;100290.75;5119677;28;20092;-82
2022/01/16 11:52:08;;;;;;;40.53;21.70;;;;;;;5.25;55.66;100289.66;5111666;28;20050;-84
2022/01/16 11:54:54;;;;;;;45.78;22.45;;;;;;;5.30;55.51;100292.91;5110848;28;20040;-83
2022/01/16 11:57:23;;;;;;;;;;;;;;;5.58;55.11;100297.56;5114369;28;20048;-79
2022/01/16 12:03:44;;;;;;;57.38;28.60;;;;;;;5.40;55.22;100282.78;4989851;27;4763231;-82
2022/01/16 12:06:37;;;;;;;45.97;23.40;;;;;;;5.38;55.50;100277.63;5131348;28;20053;-82
2022/01/16 12:09:15;;;;;;;44.25;21.73;;;;;;;5.44;55.15;100274.72;5132472;28;20050;-82
2022/01/16 12:14:55;;;;;;;49.78;23.10;;;;;;;5.40;55.54;100270.53;5120860;28;20056;-79
2022/01/16 12:17:27;;;;;;;47.25;25.60;;;;;;;5.32;55.38;100270.09;5130177;28;20057;-81
2022/01/16 12:19:56;;;;;;;56.15;25.05;;;;;;;5.28;55.64;100266.78;5129308;28;20063;-77
2022/01/16 12:22:53;;;;;;;66.95;32.50;;;;;;;5.43;55.55;100270.38;5129241;28;20092;-82
2022/01/16 12:25:39;;;;;;;60.30;31.95;;;;;;;5.40;55.21;100261.84;5114929;28;20051;-79